Time;durP1;ratioP1;P1;durP2;ratioP2;P2;SDS_P1;SDS_P2;PMS_P1;PMS_P2;Temp;Humidity;BMP_temperature;BMP_pressure;BME280_temperature;BME280_humidity;BME280_pressure;Samples;Min_cycle;Max_cycle;Signal;HPM_P1;HPM_P2
2024/01/09 00:01:43;;;;;;;3.50;3.03;;;;;;;;;;5020853;28;20544;-50
2024/01/09 00:04:09;;;;;;;4.13;3.13;;;;;;;;;;5027043;28;20512;-51
2024/01/09 00:06:35;;;;;;;4.20;3.10;;;;;;;;;;5032942;28;20416;-51
2024/01/09 00:09:02;;;;;;;3.40;2.80;;;;;;;;;;5022915;28;20397;-51
2024/01/09 00:11:29;;;;;;;3.47;3.07;;;;;;;;;;5015359;28;20897;-52
2024/01/09 00:13:55;;;;;;;5.23;2.93;;;;;;;;;;5021993;28;20428;-50
2024/01/09 00:16:21;;;;;;;4.73;3.33;;;;;;;;;;5026022;28;20456;-50
2024/01/09 00:18:53;;;;;;;4.37;3.27;;;;;;;;;;5032914;28;21242;-50
2024/01/09 00:21:19;;;;;;;3.70;2.90;;;;;;;;;;5018726;28;20783;-50
2024/01/09 00:23:45;;;;;;;3.67;3.37;;;;;;;;;;5021262;28;20855;-51
2024/01/09 00:26:11;;;;;;;4.13;3.10;;;;;;;;;;5020209;28;20523;-51
2024/01/09 00:28:37;;;;;;;3.87;2.93;;;;;;;;;;5028080;28;20742;-51
2024/01/09 00:31:03;;;;;;;3.67;2.90;;;;;;;;;;5021529;28;20941;-51
2024/01/09 00:33:29;;;;;;;4.20;3.40;;;;;;;;;;5024534;28;20436;-50
2024/01/09 00:35:55;;;;;;;3.93;3.33;;;;;;;;;;5021449;28;20437;-54
2024/01/09 00:38:21;;;;;;;4.23;3.07;;;;;;;;;;5024099;28;20429;-54
2024/01/09 00:40:47;;;;;;;3.47;3.17;;;;;;;;;;5023191;28;20390;-54
2024/01/09 00:43:13;;;;;;;3.83;3.00;;;;;;;;;;5017337;28;20603;-54
2024/01/09 00:45:39;;;;;;;4.30;3.10;;;;;;;;;;5022861;28;20532;-54
2024/01/09 00:48:06;;;;;;;3.83;2.97;;;;;;;;;;5025372;28;20850;-54
2024/01/09 00:50:32;;;;;;;4.23;3.23;;;;;;;;;;5020904;28;20939;-54
2024/01/09 00:52:58;;;;;;;4.10;3.17;;;;;;;;;;5027855;28;20397;-54
2024/01/09 00:55:24;;;;;;;3.93;2.77;;;;;;;;;;5031315;28;20857;-54
2024/01/09 00:57:50;;;;;;;5.33;3.47;;;;;;;;;;5030901;28;20934;-54
2024/01/09 01:00:16;;;;;;;3.57;3.13;;;;;;;;;;5018815;28;20406;-53
2024/01/09 01:02:42;;;;;;;4.40;2.73;;;;;;;;;;5019074;28;20954;-54
2024/01/09 01:05:08;;;;;;;3.97;2.97;;;;;;;;;;5012491;28;20456;-55
2024/01/09 01:07:34;;;;;;;4.03;3.07;;;;;;;;;;5022643;28;20437;-54
2024/01/09 01:10:00;;;;;;;3.67;2.53;;;;;;;;;;5029177;28;21152;-54
2024/01/09 01:12:26;;;;;;;3.37;2.73;;;;;;;;;;5029533;28;20839;-54
2024/01/09 01:14:52;;;;;;;3.47;2.67;;;;;;;;;;5025454;28;20914;-54
2024/01/09 01:17:18;;;;;;;4.23;3.23;;;;;;;;;;5021767;28;20412;-54
2024/01/09 01:19:44;;;;;;;3.53;2.43;;;;;;;;;;5017905;28;20420;-53
2024/01/09 01:22:10;;;;;;;3.77;2.80;;;;;;;;;;5024276;28;20456;-54
2024/01/09 01:24:36;;;;;;;4.03;2.80;;;;;;;;;;5024113;28;20769;-54
2024/01/09 01:27:02;;;;;;;3.07;2.47;;;;;;;;;;5015047;28;20413;-54
2024/01/09 01:29:28;;;;;;;3.17;2.73;;;;;;;;;;5027102;28;20405;-54
2024/01/09 01:31:54;;;;;;;4.17;3.23;;;;;;;;;;5020806;28;20893;-54
2024/01/09 01:34:20;;;;;;;4.00;2.87;;;;;;;;;;5013617;28;20409;-54
2024/01/09 01:36:47;;;;;;;4.23;2.93;;;;;;;;;;5031893;28;20833;-54
2024/01/09 01:39:13;;;;;;;3.63;2.73;;;;;;;;;;5027246;28;20419;-54
2024/01/09 01:41:39;;;;;;;3.23;2.50;;;;;;;;;;5024756;28;21003;-54
2024/01/09 01:44:14;;;;;;;3.27;2.77;;;;;;;;;;5018910;28;20473;-53
2024/01/09 01:46:40;;;;;;;3.33;2.40;;;;;;;;;;5028115;28;20436;-53
2024/01/09 01:49:06;;;;;;;4.20;2.97;;;;;;;;;;5023090;28;20433;-53
2024/01/09 01:51:32;;;;;;;2.83;2.37;;;;;;;;;;5020078;28;20579;-53
2024/01/09 01:53:58;;;;;;;3.00;2.67;;;;;;;;;;5015728;28;20972;-53
2024/01/09 01:56:24;;;;;;;3.73;2.80;;;;;;;;;;5020946;28;20992;-53
2024/01/09 01:58:51;;;;;;;2.90;2.43;;;;;;;;;;5015301;28;20417;-53
2024/01/09 02:01:17;;;;;;;3.20;2.63;;;;;;;;;;5020801;28;20456;-53
2024/01/09 02:03:43;;;;;;;4.50;3.00;;;;;;;;;;5015674;28;20397;-54
2024/01/09 02:06:10;;;;;;;3.90;2.60;;;;;;;;;;5041034;28;20413;-53
2024/01/09 02:08:37;;;;;;;4.20;2.93;;;;;;;;;;5019585;28;20398;-53
2024/01/09 02:11:03;;;;;;;3.47;2.80;;;;;;;;;;5024309;28;20421;-53
2024/01/09 02:13:29;;;;;;;3.43;2.73;;;;;;;;;;5012256;28;20422;-53
2024/01/09 02:15:55;;;;;;;2.90;2.57;;;;;;;;;;5018587;28;20437;-53
2024/01/09 02:18:21;;;;;;;3.53;2.80;;;;;;;;;;5018457;28;20526;-53
2024/01/09 02:20:47;;;;;;;3.13;2.20;;;;;;;;;;5025986;28;20451;-53
2024/01/09 02:23:13;;;;;;;4.03;2.83;;;;;;;;;;5016119;28;20496;-53
2024/01/09 02:25:40;;;;;;;3.27;2.23;;;;;;;;;;5020399;28;20471;-53
2024/01/09 02:28:14;;;;;;;3.30;2.47;;;;;;;;;;5011791;28;20441;-53
2024/01/09 02:30:41;;;;;;;3.77;3.10;;;;;;;;;;5016791;28;20434;-53
2024/01/09 02:33:08;;;;;;;5.07;2.73;;;;;;;;;;5022516;28;20853;-53
2024/01/09 02:35:34;;;;;;;3.43;2.47;;;;;;;;;;5019747;28;20435;-53
2024/01/09 02:38:00;;;;;;;3.13;2.83;;;;;;;;;;5024559;28;20474;-53
2024/01/09 02:40:26;;;;;;;4.97;2.40;;;;;;;;;;5018886;28;20439;-53
2024/01/09 02:42:52;;;;;;;3.13;2.40;;;;;;;;;;5022151;28;20469;-53
2024/01/09 02:45:18;;;;;;;4.10;2.83;;;;;;;;;;5025628;28;20918;-53
2024/01/09 02:47:44;;;;;;;3.13;2.80;;;;;;;;;;5011162;28;20939;-53
2024/01/09 02:50:11;;;;;;;3.03;2.63;;;;;;;;;;5012184;28;20440;-53
2024/01/09 02:52:37;;;;;;;3.37;2.73;;;;;;;;;;5017405;28;20429;-53
2024/01/09 02:55:03;;;;;;;2.63;2.30;;;;;;;;;;5017794;28;20962;-53
2024/01/09 02:57:29;;;;;;;4.20;3.00;;;;;;;;;;5023944;28;20486;-53
2024/01/09 02:59:55;;;;;;;3.07;2.43;;;;;;;;;;5015586;28;20436;-53
2024/01/09 03:02:21;;;;;;;2.97;2.30;;;;;;;;;;5019812;28;20471;-53
2024/01/09 03:04:47;;;;;;;2.70;2.03;;;;;;;;;;5015427;28;20999;-53
2024/01/09 03:07:13;;;;;;;3.23;2.47;;;;;;;;;;5025782;28;21263;-53
2024/01/09 03:09:43;;;;;;;3.30;2.80;;;;;;;;;;5020328;28;20897;-53
2024/01/09 03:12:09;;;;;;;3.33;2.30;;;;;;;;;;5020668;28;20428;-53
2024/01/09 03:14:37;;;;;;;2.97;2.67;;;;;;;;;;5012754;28;20467;-53
2024/01/09 03:17:04;;;;;;;3.23;2.50;;;;;;;;;;5027608;28;20443;-53
2024/01/09 03:19:31;;;;;;;2.70;2.20;;;;;;;;;;5019869;28;20444;-53
2024/01/09 03:21:57;;;;;;;2.70;2.20;;;;;;;;;;5029138;28;20465;-53
2024/01/09 03:24:23;;;;;;;2.97;2.40;;;;;;;;;;5028534;28;20462;-53
2024/01/09 03:26:49;;;;;;;3.67;2.60;;;;;;;;;;5031774;28;20531;-53
2024/01/09 03:29:18;;;;;;;4.17;2.50;;;;;;;;;;5028456;28;20428;-52
2024/01/09 03:31:44;;;;;;;3.03;2.73;;;;;;;;;;5021827;28;20414;-53
2024/01/09 03:34:10;;;;;;;2.93;2.00;;;;;;;;;;5029490;28;20488;-53
2024/01/09 03:36:38;;;;;;;4.00;2.73;;;;;;;;;;5033356;28;20822;-53
2024/01/09 03:39:04;;;;;;;3.37;2.73;;;;;;;;;;5022248;28;20396;-53
2024/01/09 03:41:31;;;;;;;3.17;2.43;;;;;;;;;;5015512;28;20994;-53
2024/01/09 03:43:58;;;;;;;3.17;2.43;;;;;;;;;;5024024;28;20457;-53
2024/01/09 03:46:24;;;;;;;3.47;2.47;;;;;;;;;;5017982;28;20463;-53
2024/01/09 03:48:50;;;;;;;2.77;2.30;;;;;;;;;;5020778;28;20409;-53
2024/01/09 03:51:16;;;;;;;2.90;2.60;;;;;;;;;;5022582;28;20436;-53
2024/01/09 03:53:43;;;;;;;3.73;2.40;;;;;;;;;;5025971;28;20463;-53
2024/01/09 03:56:09;;;;;;;2.73;2.43;;;;;;;;;;5028259;28;20932;-53
2024/01/09 03:58:35;;;;;;;3.67;2.40;;;;;;;;;;5013874;28;21023;-53
2024/01/09 04:01:02;;;;;;;2.60;2.27;;;;;;;;;;5020831;28;20884;-53
2024/01/09 04:03:28;;;;;;;3.37;2.60;;;;;;;;;;5021771;28;20401;-53
2024/01/09 04:05:54;;;;;;;3.67;2.40;;;;;;;;;;5018289;28;20428;-54
2024/01/09 04:08:20;;;;;;;3.37;2.60;;;;;;;;;;5014467;28;20464;-53
2024/01/09 04:10:46;;;;;;;3.80;2.80;;;;;;;;;;5022208;28;20923;-54
2024/01/09 04:13:12;;;;;;;2.70;2.20;;;;;;;;;;5026411;28;20762;-53
2024/01/09 04:15:39;;;;;;;4.53;2.70;;;;;;;;;;5025493;28;20923;-54
2024/01/09 04:18:05;;;;;;;4.90;3.00;;;;;;;;;;5025722;28;20574;-54
2024/01/09 04:20:31;;;;;;;2.90;2.33;;;;;;;;;;5031019;28;20409;-54
2024/01/09 04:22:57;;;;;;;4.33;3.20;;;;;;;;;;5025744;28;21066;-54
2024/01/09 04:25:23;;;;;;;4.00;2.37;;;;;;;;;;5014265;28;20500;-54
2024/01/09 04:27:49;;;;;;;3.37;2.53;;;;;;;;;;5023307;28;20416;-54
2024/01/09 04:30:15;;;;;;;3.10;2.20;;;;;;;;;;5025096;28;20401;-54
2024/01/09 04:32:41;;;;;;;3.00;2.60;;;;;;;;;;5030261;28;20436;-54
2024/01/09 04:35:07;;;;;;;3.60;2.80;;;;;;;;;;5016139;28;20424;-54
2024/01/09 04:37:33;;;;;;;3.27;2.67;;;;;;;;;;5023278;28;20459;-54
2024/01/09 04:39:59;;;;;;;3.23;2.60;;;;;;;;;;5027075;28;20940;-54
2024/01/09 04:42:26;;;;;;;3.30;2.93;;;;;;;;;;5024236;28;20529;-54
2024/01/09 04:44:52;;;;;;;3.63;2.53;;;;;;;;;;5022213;28;20465;-54
2024/01/09 04:47:18;;;;;;;3.07;2.73;;;;;;;;;;5019220;28;20447;-54
2024/01/09 04:49:44;;;;;;;3.37;2.80;;;;;;;;;;5016826;28;20429;-54
2024/01/09 04:52:10;;;;;;;6.47;2.63;;;;;;;;;;5013135;28;20904;-53
2024/01/09 04:54:36;;;;;;;4.63;3.07;;;;;;;;;;5024851;28;20931;-54
2024/01/09 04:57:02;;;;;;;3.47;2.70;;;;;;;;;;5019537;28;21286;-53
2024/01/09 04:59:28;;;;;;;3.93;3.03;;;;;;;;;;5027184;28;20413;-54
2024/01/09 05:01:54;;;;;;;5.10;2.87;;;;;;;;;;5021424;28;20929;-53
2024/01/09 05:04:20;;;;;;;3.93;3.17;;;;;;;;;;5020963;28;20409;-53
2024/01/09 05:06:47;;;;;;;3.53;2.50;;;;;;;;;;5012863;28;20919;-53
2024/01/09 05:09:13;;;;;;;3.17;2.87;;;;;;;;;;5027748;28;20413;-54
2024/01/09 05:11:39;;;;;;;3.40;2.77;;;;;;;;;;5023676;28;21222;-54
2024/01/09 05:14:05;;;;;;;3.43;2.93;;;;;;;;;;5012875;28;20512;-54
2024/01/09 05:16:31;;;;;;;3.67;2.97;;;;;;;;;;5031187;28;20484;-52
2024/01/09 05:18:57;;;;;;;4.30;2.87;;;;;;;;;;5013604;28;20398;-53
2024/01/09 05:21:23;;;;;;;3.43;3.07;;;;;;;;;;5020425;28;20452;-52
2024/01/09 05:23:49;;;;;;;2.97;2.67;;;;;;;;;;5022810;28;20746;-52
2024/01/09 05:26:15;;;;;;;2.40;2.13;;;;;;;;;;5022777;28;20397;-52
2024/01/09 05:28:41;;;;;;;3.03;2.70;;;;;;;;;;5016979;28;20448;-52
2024/01/09 05:31:07;;;;;;;4.10;2.83;;;;;;;;;;5028883;28;20390;-51
2024/01/09 05:33:33;;;;;;;3.63;2.53;;;;;;;;;;5031561;28;20951;-51
2024/01/09 05:35:59;;;;;;;3.87;2.80;;;;;;;;;;5031132;28;20401;-52
2024/01/09 05:38:25;;;;;;;4.03;2.73;;;;;;;;;;5029892;28;20470;-52
2024/01/09 05:40:52;;;;;;;3.33;3.03;;;;;;;;;;5022058;28;20416;-52
2024/01/09 05:43:18;;;;;;;3.57;2.73;;;;;;;;;;5023594;28;20477;-52
2024/01/09 05:45:44;;;;;;;4.07;2.80;;;;;;;;;;5004957;28;20473;-53
2024/01/09 05:48:10;;;;;;;4.17;2.73;;;;;;;;;;5006428;28;20415;-52
2024/01/09 05:50:36;;;;;;;4.63;2.60;;;;;;;;;;5000413;28;21001;-52
2024/01/09 05:53:02;;;;;;;5.90;2.90;;;;;;;;;;4993543;28;20504;-52
2024/01/09 05:55:28;;;;;;;3.87;2.80;;;;;;;;;;5008191;28;20441;-53
2024/01/09 05:57:54;;;;;;;3.17;2.87;;;;;;;;;;5010148;28;20398;-52
2024/01/09 06:00:20;;;;;;;5.57;3.03;;;;;;;;;;5003718;28;20438;-52
2024/01/09 06:02:46;;;;;;;3.60;2.90;;;;;;;;;;5003103;28;20465;-52
2024/01/09 06:05:12;;;;;;;4.40;3.23;;;;;;;;;;5002411;28;20446;-52
2024/01/09 06:07:39;;;;;;;6.00;2.63;;;;;;;;;;5009029;28;20406;-53
2024/01/09 06:10:05;;;;;;;3.53;2.80;;;;;;;;;;4996009;28;20425;-52
2024/01/09 06:12:31;;;;;;;4.20;2.87;;;;;;;;;;4999282;28;20836;-52
2024/01/09 06:14:57;;;;;;;3.13;2.47;;;;;;;;;;5000424;28;20441;-52
2024/01/09 06:17:23;;;;;;;3.83;2.93;;;;;;;;;;5002006;28;21008;-52
2024/01/09 06:19:50;;;;;;;4.93;2.77;;;;;;;;;;5009231;28;21282;-53
2024/01/09 06:22:16;;;;;;;3.40;3.00;;;;;;;;;;4995909;28;20466;-53
2024/01/09 06:24:42;;;;;;;3.70;2.87;;;;;;;;;;5002228;28;20433;-51
2024/01/09 06:27:08;;;;;;;3.30;2.77;;;;;;;;;;5000147;28;20433;-51
2024/01/09 06:29:34;;;;;;;4.67;3.03;;;;;;;;;;4999824;28;21014;-52
2024/01/09 06:32:00;;;;;;;3.67;2.70;;;;;;;;;;4993176;28;20893;-50
2024/01/09 06:34:26;;;;;;;3.87;2.90;;;;;;;;;;5008303;28;20881;-50
2024/01/09 06:36:52;;;;;;;4.70;3.47;;;;;;;;;;5012607;28;20411;-51
2024/01/09 06:39:19;;;;;;;3.73;3.13;;;;;;;;;;5003912;28;20413;-51
2024/01/09 06:41:45;;;;;;;3.87;2.73;;;;;;;;;;5004325;28;20992;-52
2024/01/09 06:44:11;;;;;;;4.50;3.50;;;;;;;;;;5009535;28;20470;-50
2024/01/09 06:46:37;;;;;;;4.53;2.83;;;;;;;;;;5027549;28;20795;-50
2024/01/09 06:49:04;;;;;;;3.80;3.00;;;;;;;;;;5028975;28;20413;-51
2024/01/09 06:51:31;;;;;;;3.53;2.73;;;;;;;;;;5019360;28;20499;-51
2024/01/09 06:53:57;;;;;;;4.33;3.33;;;;;;;;;;5008350;28;20394;-50
2024/01/09 06:56:24;;;;;;;4.50;3.30;;;;;;;;;;5014512;28;20947;-52
2024/01/09 06:58:50;;;;;;;4.27;3.20;;;;;;;;;;5013092;28;20813;-52
2024/01/09 07:01:16;;;;;;;4.43;2.97;;;;;;;;;;5020339;28;20759;-50
2024/01/09 07:03:42;;;;;;;5.23;3.50;;;;;;;;;;5026813;28;20402;-51
2024/01/09 07:06:08;;;;;;;3.77;3.10;;;;;;;;;;5028080;28;20429;-50
2024/01/09 07:08:34;;;;;;;3.57;2.70;;;;;;;;;;5028066;28;20396;-51
2024/01/09 07:11:00;;;;;;;5.17;3.20;;;;;;;;;;5016212;28;20410;-51
2024/01/09 07:13:26;;;;;;;3.93;3.13;;;;;;;;;;5016984;28;20938;-51
2024/01/09 07:15:52;;;;;;;3.40;2.60;;;;;;;;;;5013062;28;20411;-50
2024/01/09 07:18:18;;;;;;;4.93;3.30;;;;;;;;;;5028305;28;20914;-51
2024/01/09 07:20:44;;;;;;;4.87;3.33;;;;;;;;;;5020769;28;20777;-51
2024/01/09 07:23:10;;;;;;;4.83;3.30;;;;;;;;;;5015003;28;20445;-52
2024/01/09 07:25:37;;;;;;;4.10;3.20;;;;;;;;;;5016050;28;20748;-51
2024/01/09 07:28:03;;;;;;;4.63;3.23;;;;;;;;;;5015753;28;20421;-51
2024/01/09 07:30:29;;;;;;;5.57;3.30;;;;;;;;;;5022091;28;20421;-51
2024/01/09 07:32:55;;;;;;;6.83;3.17;;;;;;;;;;5010293;28;20969;-51
2024/01/09 07:35:21;;;;;;;4.00;3.03;;;;;;;;;;5009406;28;20463;-50
2024/01/09 07:37:47;;;;;;;6.87;3.33;;;;;;;;;;5021866;28;20458;-51
2024/01/09 07:40:13;;;;;;;6.63;3.23;;;;;;;;;;5021407;28;20397;-49
2024/01/09 07:42:39;;;;;;;5.20;3.50;;;;;;;;;;5015946;28;20468;-49
2024/01/09 07:45:05;;;;;;;3.70;2.83;;;;;;;;;;5027492;28;20547;-51
2024/01/09 07:47:31;;;;;;;4.13;3.43;;;;;;;;;;5024328;28;20424;-49
2024/01/09 07:49:57;;;;;;;4.90;3.33;;;;;;;;;;5017172;28;20418;-49
2024/01/09 07:52:24;;;;;;;3.23;2.77;;;;;;;;;;5018479;28;20923;-51
2024/01/09 07:54:50;;;;;;;3.83;3.07;;;;;;;;;;5026008;28;20412;-51
2024/01/09 07:57:17;;;;;;;4.87;3.07;;;;;;;;;;5025250;28;20433;-50
2024/01/09 07:59:43;;;;;;;5.07;3.20;;;;;;;;;;5023312;28;20445;-51
2024/01/09 08:02:09;;;;;;;4.33;3.33;;;;;;;;;;5015430;28;20963;-51
2024/01/09 08:04:35;;;;;;;5.87;3.23;;;;;;;;;;5023113;28;20973;-50
2024/01/09 08:07:01;;;;;;;5.40;3.63;;;;;;;;;;5013518;28;20451;-50
2024/01/09 08:09:27;;;;;;;4.27;3.10;;;;;;;;;;5023718;28;20439;-50
2024/01/09 08:11:53;;;;;;;4.40;3.23;;;;;;;;;;5023146;28;20398;-52
2024/01/09 08:14:19;;;;;;;4.33;3.10;;;;;;;;;;5022356;28;20878;-50
2024/01/09 08:16:45;;;;;;;4.87;3.00;;;;;;;;;;5025561;28;20440;-50
2024/01/09 08:19:11;;;;;;;6.03;3.53;;;;;;;;;;5024465;28;20412;-51
2024/01/09 08:21:37;;;;;;;5.10;3.67;;;;;;;;;;5029593;28;21006;-51
2024/01/09 08:24:04;;;;;;;4.93;3.33;;;;;;;;;;5029062;28;20505;-50
2024/01/09 08:26:30;;;;;;;3.40;3.10;;;;;;;;;;5029898;28;20463;-49
2024/01/09 08:28:56;;;;;;;5.03;3.73;;;;;;;;;;5028813;28;20436;-51
2024/01/09 08:31:22;;;;;;;4.37;3.17;;;;;;;;;;5030540;28;20778;-51
2024/01/09 08:33:48;;;;;;;4.53;3.40;;;;;;;;;;5029784;28;20836;-50
2024/01/09 08:36:15;;;;;;;3.53;3.00;;;;;;;;;;5029497;28;20429;-50
2024/01/09 08:38:41;;;;;;;5.83;3.87;;;;;;;;;;5024568;28;20428;-51
2024/01/09 08:41:08;;;;;;;4.03;3.23;;;;;;;;;;5023456;28;20544;-50
2024/01/09 08:43:34;;;;;;;5.13;3.40;;;;;;;;;;5022186;28;20472;-50
2024/01/09 08:46:00;;;;;;;5.83;3.20;;;;;;;;;;5030143;28;20919;-51
2024/01/09 08:48:27;;;;;;;5.07;3.63;;;;;;;;;;5025300;28;20465;-51
2024/01/09 08:50:53;;;;;;;4.80;3.70;;;;;;;;;;5030148;28;20950;-52
2024/01/09 08:53:20;;;;;;;3.97;3.50;;;;;;;;;;5027590;28;20432;-51
2024/01/09 08:55:46;;;;;;;3.97;3.10;;;;;;;;;;5027848;28;20871;-52
2024/01/09 08:58:12;;;;;;;5.17;3.20;;;;;;;;;;5020198;28;20425;-52
2024/01/09 09:00:38;;;;;;;5.03;3.90;;;;;;;;;;5026374;28;20825;-51
2024/01/09 09:03:04;;;;;;;4.17;3.73;;;;;;;;;;5024168;28;20463;-52
2024/01/09 09:05:30;;;;;;;5.90;3.67;;;;;;;;;;5024842;28;20491;-51
2024/01/09 09:07:57;;;;;;;7.73;4.13;;;;;;;;;;5027113;28;20518;-53
2024/01/09 09:10:23;;;;;;;6.20;4.13;;;;;;;;;;5028027;28;20871;-52
2024/01/09 09:12:49;;;;;;;4.83;3.70;;;;;;;;;;5029363;28;20542;-52
2024/01/09 09:15:15;;;;;;;4.17;3.50;;;;;;;;;;5028618;28;20424;-52
2024/01/09 09:17:41;;;;;;;5.57;3.93;;;;;;;;;;5036254;28;20432;-52
2024/01/09 09:20:07;;;;;;;5.37;3.70;;;;;;;;;;5028656;28;20792;-52
2024/01/09 09:22:35;;;;;;;4.60;3.70;;;;;;;;;;5030529;28;20461;-52
2024/01/09 09:25:02;;;;;;;5.83;3.90;;;;;;;;;;5028764;28;20780;-52
2024/01/09 09:27:28;;;;;;;4.87;4.17;;;;;;;;;;5021581;28;20516;-52
2024/01/09 09:29:54;;;;;;;5.43;3.93;;;;;;;;;;5026382;28;20463;-52
2024/01/09 09:32:20;;;;;;;5.10;3.60;;;;;;;;;;5028910;28;20954;-53
2024/01/09 09:34:46;;;;;;;4.97;3.33;;;;;;;;;;5027049;28;20440;-53
2024/01/09 09:37:12;;;;;;;6.50;4.07;;;;;;;;;;5019343;28;20829;-53
2024/01/09 09:39:38;;;;;;;6.70;3.53;;;;;;;;;;5026952;28;20440;-53
2024/01/09 09:42:04;;;;;;;7.67;4.40;;;;;;;;;;5029085;28;20573;-52
2024/01/09 09:44:32;;;;;;;4.10;3.47;;;;;;;;;;5028346;28;20468;-53
2024/01/09 09:46:58;;;;;;;5.00;4.00;;;;;;;;;;5022112;28;20420;-53
2024/01/09 09:49:24;;;;;;;5.03;3.33;;;;;;;;;;5017058;28;20458;-52
2024/01/09 09:51:50;;;;;;;4.80;3.73;;;;;;;;;;5011267;28;20417;-53
2024/01/09 09:54:17;;;;;;;5.47;3.57;;;;;;;;;;5020191;28;20790;-52
2024/01/09 09:56:44;;;;;;;4.90;3.47;;;;;;;;;;5032259;28;20413;-55
2024/01/09 09:59:11;;;;;;;8.33;3.97;;;;;;;;;;5023836;28;20413;-54
2024/01/09 10:01:37;;;;;;;6.03;3.80;;;;;;;;;;5041827;28;20455;-53
2024/01/09 10:04:16;;;;;;;5.97;3.83;;;;;;;;;;5027964;28;20926;-53
2024/01/09 10:06:44;;;;;;;5.13;3.77;;;;;;;;;;5028252;28;20428;-53
2024/01/09 10:09:14;;;;;;;4.10;3.30;;;;;;;;;;5024842;28;20416;-53
2024/01/09 10:11:40;;;;;;;4.57;3.70;;;;;;;;;;5014755;28;20434;-54
2024/01/09 10:14:10;;;;;;;6.03;3.70;;;;;;;;;;5015431;28;20514;-53
2024/01/09 10:16:49;;;;;;;4.40;4.00;;;;;;;;;;5027334;28;20765;-53
2024/01/09 10:19:16;;;;;;;5.23;4.43;;;;;;;;;;5022680;28;21059;-54
2024/01/09 10:21:42;;;;;;;5.50;3.90;;;;;;;;;;5026784;28;20522;-54
2024/01/09 10:24:08;;;;;;;4.47;3.27;;;;;;;;;;5019927;28;20417;-53
2024/01/09 10:26:34;;;;;;;7.13;3.37;;;;;;;;;;5034556;28;20438;-54
2024/01/09 10:29:01;;;;;;;5.57;4.10;;;;;;;;;;5020956;28;20472;-54
2024/01/09 10:31:29;;;;;;;5.13;3.80;;;;;;;;;;5016526;28;20920;-54
2024/01/09 10:33:56;;;;;;;6.80;3.10;;;;;;;;;;5048801;28;20925;-53
2024/01/09 10:36:22;;;;;;;4.80;3.07;;;;;;;;;;5049786;28;20411;-54
2024/01/09 10:38:48;;;;;;;4.80;3.57;;;;;;;;;;5027618;28;20428;-54
2024/01/09 10:41:16;;;;;;;7.00;3.43;;;;;;;;;;5035789;28;20963;-54
2024/01/09 10:43:42;;;;;;;4.90;3.60;;;;;;;;;;5022657;28;20987;-54
2024/01/09 10:46:08;;;;;;;5.07;3.83;;;;;;;;;;5029034;28;20461;-54
2024/01/09 10:48:35;;;;;;;4.27;3.50;;;;;;;;;;5032157;28;20416;-54
2024/01/09 10:54:05;;;;;;;3.80;3.13;;;;;;;;;;5021344;28;20479;-54
2024/01/09 10:56:31;;;;;;;4.60;3.60;;;;;;;;;;5037668;28;20393;-54
2024/01/09 10:58:58;;;;;;;4.23;3.43;;;;;;;;;;5028128;28;20961;-54
2024/01/09 11:01:24;;;;;;;5.10;3.97;;;;;;;;;;5041241;28;20643;-54
2024/01/09 11:03:50;;;;;;;4.03;3.23;;;;;;;;;;5036274;28;20408;-54
2024/01/09 11:06:17;;;;;;;4.73;3.70;;;;;;;;;;5040299;28;20407;-55
2024/01/09 11:08:44;;;;;;;5.17;3.83;;;;;;;;;;5024705;28;20205;-54
2024/01/09 11:11:12;;;;;;;3.97;3.17;;;;;;;;;;5023963;28;20421;-55
2024/01/09 11:13:41;;;;;;;5.10;3.70;;;;;;;;;;5023206;28;20802;-54
2024/01/09 11:16:08;;;;;;;3.60;3.13;;;;;;;;;;5026459;28;20448;-55
2024/01/09 11:18:35;;;;;;;5.10;3.50;;;;;;;;;;5019022;28;20445;-54
2024/01/09 11:21:01;;;;;;;5.10;3.90;;;;;;;;;;5025492;28;20404;-54
2024/01/09 11:23:42;;;;;;;6.00;3.60;;;;;;;;;;5009219;28;20492;-55
2024/01/09 11:26:09;;;;;;;3.53;2.93;;;;;;;;;;5013125;28;20425;-55
2024/01/09 11:28:36;;;;;;;4.17;3.40;;;;;;;;;;5016895;28;20409;-54
2024/01/09 11:31:06;;;;;;;4.43;3.63;;;;;;;;;;5020194;28;20896;-55
2024/01/09 11:33:32;;;;;;;4.50;3.40;;;;;;;;;;5022213;28;20420;-54
2024/01/09 11:36:05;;;;;;;6.03;3.57;;;;;;;;;;5031249;28;20465;-55
2024/01/09 11:38:31;;;;;;;4.30;3.27;;;;;;;;;;5032357;28;20447;-55
2024/01/09 11:41:02;;;;;;;4.57;3.43;;;;;;;;;;5022660;28;20402;-55
2024/01/09 11:43:28;;;;;;;4.83;3.17;;;;;;;;;;5016490;28;20488;-54
2024/01/09 11:45:54;;;;;;;3.93;2.87;;;;;;;;;;5019490;28;20421;-54
2024/01/09 11:48:20;;;;;;;3.87;3.03;;;;;;;;;;5017808;28;20757;-54
2024/01/09 11:50:46;;;;;;;4.07;3.60;;;;;;;;;;5034192;28;20185;-55
2024/01/09 11:53:13;;;;;;;4.13;3.27;;;;;;;;;;5023753;28;20410;-55
2024/01/09 11:55:40;;;;;;;4.30;3.40;;;;;;;;;;5018204;28;20182;-54
2024/01/09 11:58:07;;;;;;;4.13;3.10;;;;;;;;;;5014208;28;20420;-55
2024/01/09 12:00:35;;;;;;;4.00;2.93;;;;;;;;;;5020197;28;20543;-55
2024/01/09 12:03:01;;;;;;;5.03;3.30;;;;;;;;;;5016752;28;20463;-55
2024/01/09 12:05:28;;;;;;;3.27;2.87;;;;;;;;;;5016830;28;20486;-55
2024/01/09 12:07:54;;;;;;;3.33;3.03;;;;;;;;;;5024080;28;20761;-55
2024/01/09 12:10:20;;;;;;;4.37;3.30;;;;;;;;;;5023030;28;20421;-55
2024/01/09 12:12:46;;;;;;;3.70;3.00;;;;;;;;;;5032211;28;20197;-55
2024/01/09 12:15:19;;;;;;;3.10;2.73;;;;;;;;;;5034428;28;20393;-55
2024/01/09 12:17:52;;;;;;;4.70;3.23;;;;;;;;;;5024959;28;20197;-54
2024/01/09 12:20:18;;;;;;;4.80;3.60;;;;;;;;;;5023594;28;20509;-54
2024/01/09 12:22:44;;;;;;;4.43;2.80;;;;;;;;;;5031198;28;20459;-54
2024/01/09 12:25:10;;;;;;;3.20;2.63;;;;;;;;;;5022977;28;20903;-54
2024/01/09 12:27:36;;;;;;;3.70;3.07;;;;;;;;;;5020368;28;20493;-54
2024/01/09 12:30:02;;;;;;;2.90;2.60;;;;;;;;;;5021789;28;20852;-54
2024/01/09 12:32:30;;;;;;;4.23;2.80;;;;;;;;;;5027827;28;20830;-54
2024/01/09 12:34:56;;;;;;;4.37;3.03;;;;;;;;;;5012402;28;20417;-54
2024/01/09 12:37:22;;;;;;;4.63;3.30;;;;;;;;;;5027032;28;20437;-54
2024/01/09 12:40:00;;;;;;;3.83;3.17;;;;;;;;;;5020808;28;20427;-54
2024/01/09 12:42:26;;;;;;;4.17;3.37;;;;;;;;;;5013068;28;20568;-54
2024/01/09 12:44:53;;;;;;;3.97;2.87;;;;;;;;;;5024517;28;20461;-54
2024/01/09 12:47:19;;;;;;;4.57;3.00;;;;;;;;;;5019199;28;20443;-54
2024/01/09 12:49:45;;;;;;;3.63;3.17;;;;;;;;;;5020964;28;20429;-54
2024/01/09 12:52:12;;;;;;;4.70;3.00;;;;;;;;;;5009039;28;20450;-54
2024/01/09 12:54:39;;;;;;;3.23;2.87;;;;;;;;;;5012663;28;20416;-55
2024/01/09 12:57:05;;;;;;;34.17;5.97;;;;;;;;;;5022821;28;20437;-57
2024/01/09 12:59:32;;;;;;;18.73;4.57;;;;;;;;;;5018051;28;20410;-55
2024/01/09 13:01:58;;;;;;;11.30;3.60;;;;;;;;;;5022038;28;20460;-56
2024/01/09 13:04:24;;;;;;;13.13;3.43;;;;;;;;;;5028861;28;20460;-55
2024/01/09 13:06:50;;;;;;;3.67;2.53;;;;;;;;;;5028656;28;20275;-56
2024/01/09 13:09:16;;;;;;;6.70;3.33;;;;;;;;;;5022114;28;20177;-56
2024/01/09 13:11:43;;;;;;;3.83;3.00;;;;;;;;;;5025864;28;20414;-56
2024/01/09 13:14:10;;;;;;;4.10;2.73;;;;;;;;;;5023883;28;20209;-57
2024/01/09 13:16:36;;;;;;;3.67;2.63;;;;;;;;;;5022369;28;20843;-56
2024/01/09 13:19:02;;;;;;;5.97;3.47;;;;;;;;;;5022663;28;20718;-56
2024/01/09 13:21:29;;;;;;;4.50;2.73;;;;;;;;;;5024242;28;20641;-56
2024/01/09 13:23:55;;;;;;;3.43;2.63;;;;;;;;;;5020169;28;20190;-56
2024/01/09 13:26:21;;;;;;;6.50;2.57;;;;;;;;;;5020195;28;20421;-55
2024/01/09 13:28:48;;;;;;;3.33;2.97;;;;;;;;;;5018898;28;20699;-55
2024/01/09 13:31:14;;;;;;;5.40;2.90;;;;;;;;;;5023869;28;20609;-54
2024/01/09 13:33:40;;;;;;;3.23;2.53;;;;;;;;;;5019673;28;20253;-54
2024/01/09 13:36:07;;;;;;;5.07;2.80;;;;;;;;;;5019671;28;20187;-55
2024/01/09 13:38:33;;;;;;;7.37;2.63;;;;;;;;;;5013208;28;20178;-54
2024/01/09 13:41:01;;;;;;;3.57;2.50;;;;;;;;;;5016166;28;20182;-54
2024/01/09 13:43:27;;;;;;;2.60;2.40;;;;;;;;;;5025044;28;20460;-54
2024/01/09 13:45:54;;;;;;;4.10;2.90;;;;;;;;;;5025404;28;20595;-54
2024/01/09 13:48:20;;;;;;;4.30;2.33;;;;;;;;;;5018209;28;20536;-54
2024/01/09 13:50:47;;;;;;;4.10;3.20;;;;;;;;;;5022375;28;20828;-54
2024/01/09 13:53:15;;;;;;;4.90;2.73;;;;;;;;;;5025616;28;20188;-54
2024/01/09 13:55:41;;;;;;;3.77;2.70;;;;;;;;;;5026587;28;20640;-54
2024/01/09 13:58:07;;;;;;;3.13;2.50;;;;;;;;;;5042965;28;20620;-55
2024/01/09 14:00:33;;;;;;;3.67;2.57;;;;;;;;;;5026383;28;20762;-54
2024/01/09 14:03:00;;;;;;;3.27;2.60;;;;;;;;;;5041358;28;20255;-53
2024/01/09 14:05:28;;;;;;;2.83;2.37;;;;;;;;;;5048126;28;20621;-55
2024/01/09 14:07:54;;;;;;;3.33;2.50;;;;;;;;;;5031598;28;20276;-57
2024/01/09 14:10:21;;;;;;;2.97;2.23;;;;;;;;;;5017767;28;20661;-54
2024/01/09 14:12:48;;;;;;;3.20;2.60;;;;;;;;;;5046629;28;20177;-54
2024/01/09 14:15:16;;;;;;;3.90;2.23;;;;;;;;;;5027544;28;20638;-55
2024/01/09 14:17:42;;;;;;;3.20;2.50;;;;;;;;;;5022890;28;20182;-54
2024/01/09 14:20:09;;;;;;;3.37;2.40;;;;;;;;;;5021338;28;20194;-56
2024/01/09 14:22:35;;;;;;;2.70;2.30;;;;;;;;;;5017175;28;20202;-54
2024/01/09 14:25:01;;;;;;;5.57;2.30;;;;;;;;;;5013343;28;20238;-55
2024/01/09 14:27:28;;;;;;;2.93;2.40;;;;;;;;;;5015599;28;20422;-54
2024/01/09 14:29:55;;;;;;;5.13;3.00;;;;;;;;;;5015979;28;20174;-54
2024/01/09 14:32:21;;;;;;;3.40;2.40;;;;;;;;;;5014203;28;20182;-54
2024/01/09 14:34:47;;;;;;;4.30;2.40;;;;;;;;;;5016826;28;20198;-54
2024/01/09 14:37:14;;;;;;;3.00;2.23;;;;;;;;;;5020405;28;20221;-56
2024/01/09 14:39:40;;;;;;;4.77;3.10;;;;;;;;;;5023071;28;20181;-56
2024/01/09 14:42:07;;;;;;;4.43;2.73;;;;;;;;;;5033257;28;20293;-56